Time;durP1;ratioP1;P1;durP2;ratioP2;P2;SDS_P1;SDS_P2;PMS_P1;PMS_P2;Temp;Humidity;BMP_temperature;BMP_pressure;BME280_temperature;BME280_humidity;BME280_pressure;Samples;Min_cycle;Max_cycle;Signal;HPM_P1;HPM_P2
2022/10/24 00:00:50;;;;;;;4.38;2.20;;;14.60;99.90;;;;;;5015898;28;20101;-82
2022/10/24 00:03:18;;;;;;;5.18;2.33;;;14.60;99.90;;;;;;5009737;28;20025;-82
2022/10/24 00:05:46;;;;;;;4.88;2.20;;;14.60;99.90;;;;;;5015594;28;20061;-82
2022/10/24 00:08:13;;;;;;;5.10;2.17;;;14.60;99.90;;;;;;5015481;28;20083;-83
2022/10/24 00:10:44;;;;;;;5.72;1.80;;;14.50;99.90;;;;;;5016624;28;20034;-83
2022/10/24 00:13:14;;;;;;;6.68;2.20;;;14.50;99.90;;;;;;5015755;28;20378;-83
2022/10/24 00:15:48;;;;;;;5.22;2.33;;;14.50;99.90;;;;;;5017031;28;20026;-83
2022/10/24 00:18:14;;;;;;;5.03;2.45;;;14.50;99.90;;;;;;5016369;28;20025;-82
2022/10/24 00:20:41;;;;;;;6.93;3.13;;;14.50;99.90;;;;;;5014737;28;20038;-83
2022/10/24 00:23:07;;;;;;;7.03;2.30;;;14.50;99.90;;;;;;5015204;28;20020;-83
2022/10/24 00:25:33;;;;;;;6.05;2.28;;;14.40;99.90;;;;;;5014713;28;20036;-83
2022/10/24 00:27:59;;;;;;;5.53;2.83;;;14.40;99.90;;;;;;5014784;28;20029;-82
2022/10/24 00:30:26;;;;;;;6.88;3.10;;;14.40;99.90;;;;;;5014542;28;20429;-82
2022/10/24 00:32:53;;;;;;;9.10;2.97;;;14.40;99.90;;;;;;5015387;28;20022;-83
2022/10/24 00:35:18;;;;;;;6.53;2.20;;;14.40;99.90;;;;;;5014463;28;20034;-82
2022/10/24 00:37:45;;;;;;;4.65;2.38;;;14.40;99.90;;;;;;5006154;28;20022;-83
2022/10/24 00:40:15;;;;;;;4.57;2.60;;;14.40;99.90;;;;;;5015188;28;20045;-83
2022/10/24 00:42:42;;;;;;;8.30;2.75;;;14.50;99.90;;;;;;4997900;28;20037;-82
2022/10/24 00:45:39;;;;;;;4.47;2.47;;;14.60;99.90;;;;;;5011463;28;20034;-83
2022/10/24 00:48:35;;;;;;;6.53;2.63;;;14.60;99.90;;;;;;5013928;28;20129;-84
2022/10/24 00:51:03;;;;;;;6.95;2.90;;;14.70;99.90;;;;;;4987786;28;20406;-82
2022/10/24 00:53:37;;;;;;;6.03;2.55;;;14.70;99.90;;;;;;5015047;28;20017;-81
2022/10/24 00:56:07;;;;;;;7.05;2.50;;;14.80;99.90;;;;;;5024848;28;20028;-82
2022/10/24 00:58:37;;;;;;;9.30;2.75;;;14.80;99.90;;;;;;5004540;28;20031;-82
2022/10/24 01:01:04;;;;;;;5.97;2.42;;;14.80;99.90;;;;;;5034710;28;20022;-81
2022/10/24 01:03:34;;;;;;;5.53;2.30;;;14.80;99.90;;;;;;5016947;28;20025;-82
2022/10/24 01:06:25;;;;;;;7.57;2.53;;;14.80;99.90;;;;;;5035127;28;20049;-81
2022/10/24 01:09:09;;;;;;;4.03;2.15;;;14.80;99.90;;;;;;5017581;28;20033;-82
2022/10/24 01:11:57;;;;;;;4.13;2.25;;;14.80;99.90;;;;;;5006119;28;20042;-82
2022/10/24 01:14:47;;;;;;;7.20;2.60;;;14.80;99.90;;;;;;5001401;28;20469;-81
2022/10/24 01:17:28;;;;;;;6.60;2.55;;;14.90;99.90;;;;;;4997053;28;20355;-82
2022/10/24 01:20:03;;;;;;;7.03;2.28;;;14.90;99.90;;;;;;4997504;28;20046;-83
2022/10/24 01:22:40;;;;;;;7.85;2.38;;;15.00;99.90;;;;;;4997114;28;20030;-84
2022/10/24 01:25:27;;;;;;;6.15;2.40;;;15.00;99.90;;;;;;5015212;28;20026;-82
2022/10/24 01:28:08;;;;;;;8.20;2.85;;;15.10;99.90;;;;;;4997717;28;20042;-82
2022/10/24 01:33:58;;;;;;;5.72;2.85;;;15.10;99.90;;;;;;5051708;28;20029;-82
2022/10/24 01:36:42;;;;;;;5.88;1.92;;;15.00;99.90;;;;;;5039897;28;20130;-84
2022/10/24 01:39:15;;;;;;;7.18;2.78;;;15.00;99.90;;;;;;5013904;28;20041;-82
2022/10/24 01:41:43;;;;;;;5.50;2.60;;;15.00;99.90;;;;;;5032848;28;20168;-82
2022/10/24 01:44:34;;;;;;;5.78;2.53;;;15.00;99.90;;;;;;5008251;28;20386;-82
2022/10/24 01:47:23;;;;;;;4.93;2.40;;;15.10;99.90;;;;;;5034793;28;20021;-83
2022/10/24 01:49:56;;;;;;;8.43;2.30;;;15.00;99.90;;;;;;5007425;28;20490;-83
2022/10/24 01:52:24;;;;;;;5.35;2.40;;;15.00;99.90;;;;;;5015054;28;20049;-83
2022/10/24 01:54:52;;;;;;;4.93;2.20;;;15.00;99.90;;;;;;5014771;28;20041;-82
2022/10/24 01:57:18;;;;;;;5.68;2.35;;;15.00;99.90;;;;;;4997171;28;20014;-83
2022/10/24 01:59:47;;;;;;;4.15;2.40;;;15.00;99.90;;;;;;5004923;28;20466;-82
2022/10/24 02:02:15;;;;;;;8.02;2.42;;;15.10;99.90;;;;;;5018162;28;20377;-82
2022/10/24 02:04:48;;;;;;;4.22;2.00;;;15.10;99.90;;;;;;4996513;28;20470;-82
2022/10/24 02:07:16;;;;;;;6.22;2.95;;;15.10;99.90;;;;;;4976640;28;20019;-83
2022/10/24 02:09:45;;;;;;;4.03;2.20;;;15.10;99.90;;;;;;4975802;28;20467;-82
2022/10/24 02:12:16;;;;;;;6.32;2.00;;;15.20;99.90;;;;;;4989254;28;20058;-82
2022/10/24 02:14:48;;;;;;;8.52;2.88;;;15.10;99.90;;;;;;4975397;28;20498;-83
2022/10/24 02:17:16;;;;;;;7.45;2.03;;;15.20;99.90;;;;;;4976452;28;20026;-83
2022/10/24 02:19:43;;;;;;;4.88;2.00;;;15.20;99.90;;;;;;4976517;28;20042;-83
2022/10/24 02:22:12;;;;;;;6.07;2.63;;;15.10;99.90;;;;;;4977132;28;20471;-82
2022/10/24 02:24:49;;;;;;;5.50;2.25;;;15.20;99.90;;;;;;4975087;28;20027;-83
2022/10/24 02:27:25;;;;;;;6.55;2.25;;;15.20;99.90;;;;;;4964236;28;20426;-83
2022/10/24 02:30:09;;;;;;;3.60;2.00;;;15.20;99.90;;;;;;4976128;28;20038;-83
2022/10/24 02:32:41;;;;;;;6.07;2.00;;;15.20;99.90;;;;;;4994607;28;20027;-83
2022/10/24 02:35:10;;;;;;;6.60;1.90;;;15.20;99.90;;;;;;4974144;28;20033;-83
2022/10/24 02:37:42;;;;;;;4.65;1.67;;;15.20;99.90;;;;;;4977011;28;20078;-82
2022/10/24 02:40:11;;;;;;;5.40;2.00;;;15.20;99.90;;;;;;4962919;28;20126;-83
2022/10/24 02:42:39;;;;;;;5.10;2.00;;;15.20;99.90;;;;;;4976464;28;20030;-82
2022/10/24 02:45:08;;;;;;;5.72;2.00;;;15.20;99.90;;;;;;4976994;28;20026;-83
2022/10/24 02:47:37;;;;;;;4.30;1.50;;;15.20;99.90;;;;;;4976655;28;20345;-83
2022/10/24 02:50:03;;;;;;;7.60;2.17;;;15.20;99.90;;;;;;5004775;28;20140;-82
2022/10/24 02:52:29;;;;;;;3.88;1.80;;;15.20;99.90;;;;;;4996128;28;20033;-82
2022/10/24 02:54:55;;;;;;;4.00;1.60;;;15.10;99.90;;;;;;4996422;28;20029;-83
2022/10/24 02:57:25;;;;;;;6.13;1.50;;;15.10;99.90;;;;;;4996713;28;20038;-83
2022/10/24 02:59:52;;;;;;;4.40;1.92;;;15.10;99.90;;;;;;4996671;28;20485;-83
2022/10/24 03:02:19;;;;;;;4.43;1.58;;;15.00;99.90;;;;;;4998485;28;20474;-83
2022/10/24 03:04:47;;;;;;;6.00;1.70;;;15.00;99.90;;;;;;4983923;28;20053;-83
2022/10/24 03:07:13;;;;;;;3.58;1.40;;;15.00;99.90;;;;;;4996564;28;20112;-82
2022/10/24 03:09:39;;;;;;;3.97;1.58;;;15.00;99.90;;;;;;5009777;28;20050;-83
2022/10/24 03:12:06;;;;;;;4.18;1.40;;;15.00;99.90;;;;;;5014136;28;20040;-83
2022/10/24 03:14:32;;;;;;;4.43;1.85;;;15.00;99.90;;;;;;4996500;28;20026;-83
2022/10/24 03:16:58;;;;;;;5.07;1.75;;;15.00;99.90;;;;;;5016919;28;20018;-83
2022/10/24 03:19:25;;;;;;;7.65;1.77;;;15.00;99.90;;;;;;5018197;28;20037;-83
2022/10/24 03:21:51;;;;;;;6.50;1.42;;;15.00;99.90;;;;;;5000562;28;20022;-83
2022/10/24 03:24:17;;;;;;;4.38;1.38;;;15.00;99.90;;;;;;5004983;28;20022;-83
2022/10/24 03:26:44;;;;;;;4.30;1.30;;;15.00;99.90;;;;;;5009754;28;20021;-82
2022/10/24 03:29:13;;;;;;;4.32;1.58;;;15.00;99.90;;;;;;5016015;28;20018;-82
2022/10/24 03:31:40;;;;;;;2.83;1.27;;;15.00;99.90;;;;;;5022476;28;20018;-82
2022/10/24 03:34:06;;;;;;;3.20;1.38;;;15.00;99.90;;;;;;5021298;28;20473;-82
2022/10/24 03:36:34;;;;;;;3.58;1.00;;;15.00;99.90;;;;;;5004292;28;20021;-83
2022/10/24 03:39:00;;;;;;;4.90;1.25;;;14.90;99.90;;;;;;5000538;28;20049;-82
2022/10/24 03:41:26;;;;;;;3.85;1.23;;;15.00;99.90;;;;;;4999799;28;20014;-83
2022/10/24 03:43:52;;;;;;;5.32;1.20;;;15.00;99.90;;;;;;5000425;28;20025;-82
2022/10/24 03:46:18;;;;;;;3.83;1.17;;;14.90;99.90;;;;;;5017780;28;20030;-82
2022/10/24 03:48:45;;;;;;;3.03;1.20;;;14.90;99.90;;;;;;4999515;28;20077;-82
2022/10/24 03:51:10;;;;;;;4.72;1.20;;;14.90;99.90;;;;;;4999132;28;20049;-81
2022/10/24 03:53:36;;;;;;;2.80;0.93;;;15.00;99.90;;;;;;5016727;28;20097;-82
2022/10/24 03:56:03;;;;;;;2.47;0.98;;;15.00;99.90;;;;;;4999145;28;20466;-81
2022/10/24 03:58:31;;;;;;;2.72;1.05;;;15.00;99.90;;;;;;4998551;28;20037;-82
2022/10/24 04:00:58;;;;;;;2.85;1.50;;;15.00;99.90;;;;;;4998402;28;20434;-82
2022/10/24 04:03:25;;;;;;;4.57;1.00;;;14.90;99.90;;;;;;5017282;28;20026;-81
2022/10/24 04:05:51;;;;;;;4.57;1.35;;;15.00;99.90;;;;;;4993617;28;20407;-81
2022/10/24 04:08:18;;;;;;;3.25;0.82;;;15.00;99.90;;;;;;5015625;28;20032;-81
2022/10/24 04:10:44;;;;;;;4.38;1.27;;;15.00;99.90;;;;;;4998611;28;20037;-81
2022/10/24 04:13:10;;;;;;;5.32;1.42;;;15.00;99.90;;;;;;4998946;28;20030;-81
2022/10/24 04:15:37;;;;;;;3.05;0.85;;;15.00;99.90;;;;;;5005797;28;20153;-81
2022/10/24 04:18:03;;;;;;;4.45;0.80;;;15.00;99.90;;;;;;5003302;28;20022;-81
2022/10/24 04:20:29;;;;;;;2.92;0.90;;;15.00;99.90;;;;;;5006779;28;20022;-81
2022/10/24 04:22:57;;;;;;;4.38;1.00;;;14.90;99.90;;;;;;4993890;28;20030;-81
2022/10/24 04:25:22;;;;;;;2.22;0.70;;;14.90;99.90;;;;;;5015772;28;20397;-81
2022/10/24 04:27:48;;;;;;;1.35;0.70;;;14.80;99.90;;;;;;5018254;28;20034;-81
2022/10/24 04:30:16;;;;;;;2.30;0.80;;;14.70;99.90;;;;;;4998474;28;20089;-81
2022/10/24 04:32:43;;;;;;;3.80;0.85;;;14.70;99.90;;;;;;4970373;28;20042;-80
2022/10/24 04:35:10;;;;;;;4.32;0.90;;;14.60;99.90;;;;;;4996693;28;20468;-81
2022/10/24 04:37:37;;;;;;;2.28;0.77;;;14.60;99.90;;;;;;4997972;28;20145;-81
2022/10/24 04:40:05;;;;;;;2.15;0.90;;;14.60;99.90;;;;;;5000420;28;20022;-80
2022/10/24 04:42:30;;;;;;;2.30;0.95;;;14.50;99.90;;;;;;4982415;28;20486;-81
2022/10/24 04:44:59;;;;;;;3.72;1.00;;;14.60;99.90;;;;;;4989209;28;20522;-82
2022/10/24 04:47:26;;;;;;;4.57;1.05;;;14.60;99.90;;;;;;4989481;28;20542;-81
2022/10/24 04:49:52;;;;;;;4.03;1.00;;;14.60;99.90;;;;;;4997800;28;20409;-81
2022/10/24 04:52:19;;;;;;;4.45;1.35;;;14.60;99.90;;;;;;4997032;28;20032;-81
2022/10/24 04:54:45;;;;;;;4.80;1.05;;;14.60;99.90;;;;;;4997588;28;20505;-81
2022/10/24 04:57:13;;;;;;;4.82;1.00;;;14.70;99.90;;;;;;4996383;28;20081;-82
2022/10/24 04:59:39;;;;;;;4.40;1.13;;;14.70;99.90;;;;;;4997823;28;20036;-81
2022/10/24 05:02:05;;;;;;;3.30;1.15;;;14.70;99.90;;;;;;5014733;28;20089;-82
2022/10/24 05:04:31;;;;;;;4.68;0.90;;;14.70;99.90;;;;;;5013254;28;20034;-82
2022/10/24 05:06:58;;;;;;;5.30;1.17;;;14.70;99.90;;;;;;5013183;28;20022;-82
2022/10/24 05:09:24;;;;;;;3.78;0.93;;;14.70;99.90;;;;;;4979226;28;20418;-81
2022/10/24 05:11:52;;;;;;;4.35;1.23;;;14.70;99.90;;;;;;4987233;28;20057;-81
2022/10/24 05:14:18;;;;;;;3.55;1.00;;;14.70;99.90;;;;;;4991747;28;20506;-81
2022/10/24 05:16:48;;;;;;;5.55;1.23;;;14.70;99.90;;;;;;4998841;28;20026;-82
2022/10/24 05:19:21;;;;;;;4.00;1.17;;;14.70;99.90;;;;;;5031579;28;20032;-81
2022/10/24 05:21:47;;;;;;;;;;;14.80;99.90;;;;;;5002953;28;20151;-82
2022/10/24 05:24:13;;;;;;;2.70;0.90;;;14.80;99.90;;;;;;5013458;28;19894;-82
2022/10/24 05:26:39;;;;;;;4.50;1.02;;;14.80;99.90;;;;;;5029143;28;20026;-81
2022/10/24 05:29:05;;;;;;;5.45;1.00;;;14.80;99.90;;;;;;4999028;28;20061;-81
2022/10/24 05:31:32;;;;;;;5.43;1.10;;;14.90;99.90;;;;;;4996256;28;20037;-81
2022/10/24 05:33:58;;;;;;;2.42;0.90;;;14.90;99.90;;;;;;5014375;28;20043;-82
2022/10/24 05:36:24;;;;;;;8.35;1.23;;;14.90;99.90;;;;;;4996049;28;20048;-82
2022/10/24 05:38:50;;;;;;;3.78;1.05;;;14.90;99.90;;;;;;4996115;28;20635;-82
2022/10/24 05:41:16;;;;;;;4.18;1.23;;;14.90;99.90;;;;;;4996407;28;20064;-82
2022/10/24 05:43:47;;;;;;;4.18;1.00;;;14.90;99.90;;;;;;5014010;28;20101;-82
2022/10/24 05:46:13;;;;;;;2.88;0.70;;;15.00;99.90;;;;;;4996731;28;20022;-82
2022/10/24 05:48:39;;;;;;;3.05;0.90;;;15.00;99.90;;;;;;5013024;28;20149;-83
2022/10/24 05:51:09;;;;;;;5.03;1.13;;;15.00;99.90;;;;;;4995007;28;20049;-81
2022/10/24 05:53:35;;;;;;;6.78;1.40;;;15.00;99.90;;;;;;5013580;28;20113;-82
2022/10/24 05:56:01;;;;;;;4.70;0.90;;;15.00;99.90;;;;;;4997775;28;20061;-82
2022/10/24 05:58:27;;;;;;;5.35;1.23;;;15.10;99.90;;;;;;4994587;28;20482;-82
2022/10/24 06:00:53;;;;;;;5.57;1.08;;;15.20;99.90;;;;;;4995670;28;20086;-82
2022/10/24 06:03:19;;;;;;;4.68;0.85;;;15.20;99.90;;;;;;4990574;28;20014;-81
2022/10/24 06:05:45;;;;;;;3.90;1.17;;;15.20;99.90;;;;;;5009476;28;20026;-81
2022/10/24 06:08:12;;;;;;;3.42;0.82;;;15.10;99.90;;;;;;4995847;28;20481;-81
2022/10/24 06:10:37;;;;;;;4.68;1.00;;;15.10;99.90;;;;;;4994876;28;20474;-81
2022/10/24 06:13:03;;;;;;;4.35;1.25;;;15.10;99.90;;;;;;5013695;28;20030;-81
2022/10/24 06:15:29;;;;;;;5.55;1.40;;;15.10;99.90;;;;;;4994060;28;20072;-81
2022/10/24 06:17:56;;;;;;;4.40;1.25;;;15.10;99.90;;;;;;5013141;28;20022;-81
2022/10/24 06:20:22;;;;;;;7.15;1.27;;;15.10;99.90;;;;;;4996753;28;20026;-81
2022/10/24 06:22:49;;;;;;;3.00;0.90;;;15.10;99.90;;;;;;5014461;28;20318;-80
2022/10/24 06:25:16;;;;;;;3.97;1.13;;;15.10;99.90;;;;;;4996695;28;20052;-81
2022/10/24 06:27:43;;;;;;;5.80;1.13;;;15.10;99.90;;;;;;4996578;28;20489;-82
2022/10/24 06:30:10;;;;;;;5.88;1.33;;;15.00;99.90;;;;;;4995646;28;20033;-81
2022/10/24 06:32:38;;;;;;;3.75;0.95;;;15.10;99.90;;;;;;5013752;28;20478;-81
2022/10/24 06:35:05;;;;;;;4.43;1.15;;;15.10;99.90;;;;;;4994761;28;20044;-81
2022/10/24 06:37:30;;;;;;;4.60;1.00;;;15.20;99.90;;;;;;4995699;28;20030;-82
2022/10/24 06:39:58;;;;;;;4.15;1.05;;;15.10;99.90;;;;;;4994342;28;20033;-83
2022/10/24 06:42:25;;;;;;;3.35;0.80;;;15.20;99.90;;;;;;4995825;28;20056;-81
2022/10/24 06:44:51;;;;;;;5.30;1.10;;;15.10;99.90;;;;;;5013896;28;20084;-82
2022/10/24 06:47:18;;;;;;;6.28;1.20;;;15.20;99.90;;;;;;4996494;28;20049;-82
2022/10/24 06:49:44;;;;;;;8.02;1.10;;;15.20;99.90;;;;;;5013841;28;20065;-81
2022/10/24 06:52:10;;;;;;;4.05;1.23;;;15.10;99.90;;;;;;5017410;28;20022;-82
2022/10/24 06:54:37;;;;;;;4.90;1.17;;;15.10;99.90;;;;;;5017814;28;20053;-83
2022/10/24 06:57:04;;;;;;;3.72;1.08;;;15.10;99.90;;;;;;4997171;28;20033;-82
2022/10/24 06:59:30;;;;;;;2.88;0.90;;;15.10;99.90;;;;;;5011748;28;20062;-82
2022/10/24 07:01:57;;;;;;;5.43;1.25;;;15.10;99.90;;;;;;5028197;28;20026;-82
2022/10/24 07:04:25;;;;;;;4.50;1.00;;;15.20;99.90;;;;;;5019478;28;20062;-80
2022/10/24 07:06:52;;;;;;;4.57;1.00;;;15.20;99.90;;;;;;5006185;28;20025;-81
2022/10/24 07:09:18;;;;;;;3.22;0.80;;;15.20;99.90;;;;;;4999443;28;20022;-81
2022/10/24 07:11:44;;;;;;;5.40;1.65;;;15.20;99.90;;;;;;4989564;28;20027;-81
2022/10/24 07:14:12;;;;;;;6.32;1.10;;;15.20;99.90;;;;;;4997857;28;20028;-82
2022/10/24 07:16:38;;;;;;;5.72;1.23;;;15.20;99.90;;;;;;5002693;28;20018;-82
2022/10/24 07:19:05;;;;;;;4.22;0.98;;;15.30;99.90;;;;;;5012413;28;20116;-81
2022/10/24 07:21:32;;;;;;;3.00;0.75;;;15.40;99.90;;;;;;5015183;28;20032;-82
2022/10/24 07:23:59;;;;;;;2.95;0.80;;;15.40;99.90;;;;;;5019794;28;20102;-81
2022/10/24 07:26:27;;;;;;;2.50;0.70;;;15.50;99.90;;;;;;5013596;28;20477;-81
2022/10/24 07:28:55;;;;;;;4.15;1.30;;;15.50;99.90;;;;;;4999637;28;20025;-81
2022/10/24 07:31:24;;;;;;;9.07;1.45;;;15.50;99.90;;;;;;4998094;28;20092;-82
2022/10/24 07:33:52;;;;;;;5.75;1.15;;;15.50;99.90;;;;;;5020783;28;20126;-82
2022/10/24 07:36:22;;;;;;;2.63;0.80;;;15.50;99.90;;;;;;4996748;28;20058;-81
2022/10/24 07:38:50;;;;;;;5.72;0.90;;;15.50;99.90;;;;;;4997645;28;20524;-81
2022/10/24 07:41:17;;;;;;;8.95;1.38;;;15.50;99.90;;;;;;4999007;28;20088;-81
2022/10/24 07:43:45;;;;;;;4.18;1.10;;;15.50;99.90;;;;;;4998681;28;20036;-81
2022/10/24 07:46:14;;;;;;;6.25;1.08;;;15.50;99.90;;;;;;5017153;28;20021;-81
2022/10/24 07:48:43;;;;;;;2.72;0.90;;;15.60;99.90;;;;;;4998264;28;20029;-82
2022/10/24 07:51:12;;;;;;;6.60;1.15;;;15.60;99.90;;;;;;4998158;28;20073;-81
2022/10/24 07:53:38;;;;;;;5.85;1.08;;;15.60;99.90;;;;;;5016131;28;20114;-81
2022/10/24 07:56:08;;;;;;;8.20;1.00;;;15.70;99.90;;;;;;4997612;28;20072;-81
2022/10/24 07:58:36;;;;;;;6.47;1.65;;;15.80;99.90;;;;;;4997637;28;20068;-80
2022/10/24 08:01:17;;;;;;;5.60;0.95;;;15.90;99.90;;;;;;4997575;28;20030;-80
2022/10/24 08:03:44;;;;;;;4.65;1.17;;;16.00;99.90;;;;;;4995876;28;20117;-81
2022/10/24 08:06:16;;;;;;;4.22;1.00;;;16.00;99.90;;;;;;4997304;28;20022;-81
2022/10/24 08:08:43;;;;;;;5.85;1.10;;;16.00;99.90;;;;;;4996533;28;20030;-83
2022/10/24 08:11:15;;;;;;;7.00;1.30;;;16.10;99.90;;;;;;4992442;28;20081;-82
2022/10/24 08:13:41;;;;;;;10.15;2.10;;;16.10;99.90;;;;;;4997158;28;20088;-82
2022/10/24 08:16:10;;;;;;;4.15;0.98;;;16.20;99.90;;;;;;5014658;28;20516;-81
2022/10/24 08:18:36;;;;;;;5.65;1.15;;;16.20;99.90;;;;;;4996974;28;20026;-82
2022/10/24 08:21:06;;;;;;;6.45;1.27;;;16.30;99.90;;;;;;5020160;28;20026;-81
2022/10/24 08:23:33;;;;;;;4.10;1.20;;;16.40;99.90;;;;;;5000143;28;20061;-80
2022/10/24 08:25:59;;;;;;;7.90;1.15;;;16.40;99.90;;;;;;4999758;28;20034;-79
2022/10/24 08:28:27;;;;;;;5.70;1.00;;;16.40;99.90;;;;;;4988622;28;20017;-81
2022/10/24 08:31:03;;;;;;;10.10;1.52;;;16.40;99.90;;;;;;4998990;28;20136;-80
2022/10/24 08:33:29;;;;;;;7.28;1.10;;;16.40;99.90;;;;;;4996024;28;20711;-81
2022/10/24 08:35:58;;;;;;;7.22;1.67;;;16.40;99.90;;;;;;4995771;28;20030;-81
2022/10/24 08:38:28;;;;;;;6.35;1.40;;;16.50;99.90;;;;;;4999077;28;20022;-81
2022/10/24 08:40:55;;;;;;;5.97;1.10;;;16.50;99.90;;;;;;4995928;28;20033;-81
2022/10/24 08:43:23;;;;;;;6.90;1.63;;;16.60;99.90;;;;;;4997904;28;20489;-82
2022/10/24 08:46:11;;;;;;;7.57;1.65;;;16.60;99.90;;;;;;4995702;28;20113;-82
2022/10/24 08:48:47;;;;;;;5.22;0.90;;;16.70;99.90;;;;;;4991065;28;20029;-80
2022/10/24 08:51:42;;;;;;;7.70;1.35;;;16.70;99.90;;;;;;5012767;28;20125;-81
2022/10/24 08:54:15;;;;;;;6.60;1.17;;;16.80;99.90;;;;;;4989760;28;20042;-81
2022/10/24 08:56:43;;;;;;;8.23;1.33;;;16.90;99.90;;;;;;4994496;28;20033;-81
2022/10/24 08:59:12;;;;;;;7.57;1.00;;;17.00;99.90;;;;;;5013714;28;20034;-81
2022/10/24 09:01:52;;;;;;;5.38;1.10;;;17.90;99.90;;;;;;4997461;28;20109;-82
2022/10/24 09:04:22;;;;;;;3.85;1.25;;;19.40;99.90;;;;;;5002503;28;20029;-81
2022/10/24 09:06:50;;;;;;;5.20;0.90;;;20.30;99.90;;;;;;5018994;28;20033;-81
2022/10/24 09:09:35;;;;;;;6.28;0.95;;;20.70;99.90;;;;;;5000789;28;20034;-81
2022/10/24 09:12:14;;;;;;;2.80;0.70;;;21.30;99.90;;;;;;5020611;28;20386;-84
2022/10/24 09:14:43;;;;;;;4.05;1.05;;;21.50;99.90;;;;;;5028946;28;20091;-82
2022/10/24 09:17:22;;;;;;;2.92;0.70;;;21.50;99.90;;;;;;5024159;28;20111;-82
2022/10/24 09:20:00;;;;;;;5.45;1.02;;;22.00;99.90;;;;;;5016989;28;20010;-83
2022/10/24 09:22:30;;;;;;;5.05;1.17;;;22.10;99.90;;;;;;5029795;28;20053;-83
2022/10/24 09:25:11;;;;;;;4.30;0.93;;;22.40;99.90;;;;;;5014355;28;20405;-82
2022/10/24 09:27:39;;;;;;;5.65;1.30;;;22.90;99.90;;;;;;5016426;28;20417;-82
2022/10/24 09:30:13;;;;;;;7.43;1.10;;;23.40;99.90;;;;;;5002810;28;20025;-81
2022/10/24 09:32:42;;;;;;;4.10;0.90;;;23.80;99.90;;;;;;4997198;28;20073;-82
2022/10/24 09:35:16;;;;;;;4.03;0.82;;;24.00;99.90;;;;;;5006534;28;20032;-83
2022/10/24 09:37:50;;;;;;;9.15;1.08;;;23.90;99.90;;;;;;5001832;28;20030;-81
2022/10/24 09:40:23;;;;;;;5.28;0.90;;;24.00;99.90;;;;;;4996161;28;20381;-82
2022/10/24 09:42:58;;;;;;;2.75;0.80;;;24.40;99.90;;;;;;5010982;28;20026;-83
2022/10/24 09:45:36;;;;;;;4.63;0.95;;;24.70;99.90;;;;;;4990576;28;20093;-82
2022/10/24 09:48:26;;;;;;;3.83;1.00;;;25.00;99.90;;;;;;4993468;28;20021;-83
2022/10/24 09:50:54;;;;;;;3.70;0.93;;;24.20;99.90;;;;;;5013890;28;20056;-83
2022/10/24 09:53:30;;;;;;;4.78;0.88;;;24.00;99.90;;;;;;5004421;28;20030;-82
2022/10/24 09:56:09;;;;;;;3.85;0.90;;;23.20;99.90;;;;;;4996568;28;20112;-83
2022/10/24 09:58:39;;;;;;;4.82;1.00;;;22.40;99.90;;;;;;4990587;28;20033;-82
2022/10/24 10:01:18;;;;;;;3.72;0.73;;;21.50;99.90;;;;;;4991807;28;20042;-83
2022/10/24 10:04:00;;;;;;;4.90;0.90;;;20.70;99.90;;;;;;5005616;28;20042;-82
2022/10/24 10:06:27;;;;;;;4.70;0.90;;;19.90;99.90;;;;;;4988430;28;20076;-82
2022/10/24 10:08:55;;;;;;;3.65;0.75;;;19.40;99.90;;;;;;5004467;28;20040;-82
2022/10/24 10:11:30;;;;;;;3.45;0.70;;;19.20;99.90;;;;;;4990386;28;20038;-82
2022/10/24 10:14:00;;;;;;;3.60;0.77;;;19.10;99.90;;;;;;4985211;28;20033;-82
2022/10/24 10:16:59;;;;;;;4.57;0.80;;;19.00;99.90;;;;;;5005801;28;20032;-82
2022/10/24 10:19:31;;;;;;;3.55;0.70;;;19.00;99.90;;;;;;4964610;28;20044;-83
2022/10/24 10:22:03;;;;;;;5.18;0.90;;;19.00;99.90;;;;;;5008940;28;20044;-82
2022/10/24 10:24:39;;;;;;;3.75;0.90;;;19.10;99.90;;;;;;4994182;28;20124;-80
2022/10/24 10:27:35;;;;;;;4.20;0.75;;;19.30;99.90;;;;;;5012810;28;20072;-82
2022/10/24 10:30:16;;;;;;;3.38;0.82;;;19.40;99.90;;;;;;4996014;28;20053;-82
2022/10/24 10:33:14;;;;;;;3.20;0.90;;;19.20;99.90;;;;;;4995063;28;20097;-83
2022/10/24 10:35:56;;;;;;;5.15;1.15;;;19.00;99.90;;;;;;4987922;28;20109;-81
2022/10/24 10:38:57;;;;;;;3.55;0.70;;;18.90;99.90;;;;;;4990259;28;20029;-82
2022/10/24 10:41:33;;;;;;;3.58;0.68;;;19.60;99.90;;;;;;4980006;28;20034;-82
2022/10/24 10:44:29;;;;;;;3.40;0.77;;;19.70;99.90;;;;;;5009365;28;20525;-81
2022/10/24 10:47:01;;;;;;;6.07;0.80;;;19.70;99.90;;;;;;4996376;28;20096;-80
2022/10/24 10:49:40;;;;;;;4.93;0.95;;;19.60;99.90;;;;;;4995953;28;20054;-80
2022/10/24 10:52:29;;;;;;;5.80;1.02;;;19.50;99.90;;;;;;5014009;28;20072;-84
2022/10/24 10:55:13;;;;;;;4.20;0.82;;;19.70;99.90;;;;;;5005924;28;20074;-82
2022/10/24 10:57:59;;;;;;;5.13;0.90;;;19.70;99.90;;;;;;4993534;28;20033;-83
2022/10/24 11:00:33;;;;;;;4.68;1.10;;;19.60;99.90;;;;;;5012643;28;20034;-81
2022/10/24 11:03:24;;;;;;;4.63;0.70;;;19.20;99.90;;;;;;4994091;28;20812;-82
2022/10/24 11:05:55;;;;;;;2.15;0.73;;;19.00;99.90;;;;;;4996829;28;20041;-81
2022/10/24 11:08:40;;;;;;;4.45;0.68;;;19.00;99.90;;;;;;4994265;28;20069;-83
2022/10/24 11:11:18;;;;;;;5.20;0.82;;;19.30;99.90;;;;;;5013720;28;20103;-81
2022/10/24 11:14:16;;;;;;;3.95;0.68;;;19.80;99.90;;;;;;5003832;28;20481;-81
2022/10/24 11:16:43;;;;;;;3.83;0.90;;;21.00;99.90;;;;;;4999073;28;20022;-81
2022/10/24 11:19:33;;;;;;;2.25;0.68;;;21.70;99.90;;;;;;5020431;28;20033;-81
2022/10/24 11:22:03;;;;;;;4.57;0.95;;;21.60;99.90;;;;;;5003415;28;20025;-82
2022/10/24 11:24:39;;;;;;;3.97;0.80;;;21.40;99.90;;;;;;5012609;28;20067;-83
2022/10/24 11:27:46;;;;;;;4.13;0.80;;;21.20;99.90;;;;;;5014039;28;20033;-84
2022/10/24 11:30:19;;;;;;;1.83;0.50;;;20.90;99.90;;;;;;4999738;28;20022;-81
2022/10/24 11:32:54;;;;;;;4.43;0.60;;;20.50;99.90;;;;;;4996555;28;20042;-82
2022/10/24 11:35:31;;;;;;;2.33;0.60;;;20.40;99.90;;;;;;4996882;28;20080;-83
2022/10/24 11:38:21;;;;;;;3.63;0.80;;;20.30;99.90;;;;;;5012596;28;20033;-83
2022/10/24 11:40:52;;;;;;;3.63;0.73;;;20.00;99.90;;;;;;5003675;28;20045;-83
2022/10/24 11:43:27;;;;;;;4.03;0.73;;;19.90;99.90;;;;;;4995522;28;20053;-83
2022/10/24 11:46:08;;;;;;;2.60;0.52;;;19.90;99.90;;;;;;5016544;28;20088;-82
2022/10/24 11:48:34;;;;;;;4.22;0.88;;;19.70;99.90;;;;;;5012766;28;20033;-84
2022/10/24 11:51:21;;;;;;;3.88;0.73;;;19.50;99.90;;;;;;4996805;28;20064;-83
2022/10/24 11:54:02;;;;;;;5.00;1.27;;;19.10;99.90;;;;;;4993027;28;20037;-82
2022/10/24 11:56:40;;;;;;;4.63;0.90;;;18.80;99.90;;;;;;5011382;28;20037;-83
2022/10/24 11:59:14;;;;;;;7.88;1.02;;;18.50;99.90;;;;;;4991983;28;20047;-83
2022/10/24 12:01:55;;;;;;;3.97;0.80;;;18.40;99.90;;;;;;4997001;28;20084;-83
2022/10/24 12:04:43;;;;;;;4.90;0.90;;;18.60;99.90;;;;;;5010725;28;20057;-83
2022/10/24 12:07:23;;;;;;;3.35;0.80;;;19.00;99.90;;;;;;4990992;28;20030;-82
2022/10/24 12:10:07;;;;;;;5.53;0.90;;;19.60;99.90;;;;;;4997574;28;20037;-83
2022/10/24 12:13:12;;;;;;;3.22;0.90;;;19.90;99.90;;;;;;5010096;28;20029;-82
2022/10/24 12:16:28;;;;;;;5.20;0.85;;;20.10;99.90;;;;;;4992816;28;20608;-82
2022/10/24 12:19:16;;;;;;;3.10;0.82;;;20.00;99.90;;;;;;4989333;28;20034;-83
2022/10/24 12:21:59;;;;;;;2.40;0.40;;;19.80;99.90;;;;;;4993480;28;20117;-82
2022/10/24 12:24:37;;;;;;;3.10;1.02;;;19.60;99.90;;;;;;4970793;28;20029;-81
2022/10/24 12:27:08;;;;;;;3.65;0.57;;;19.50;99.90;;;;;;5010764;28;20022;-83
2022/10/24 12:29:35;;;;;;;3.75;0.65;;;19.40;99.90;;;;;;4995192;28;20033;-82
2022/10/24 12:32:43;;;;;;;1.77;0.50;;;19.30;99.90;;;;;;4994894;28;20081;-82
2022/10/24 12:35:37;;;;;;;2.58;0.50;;;19.50;99.90;;;;;;5012861;28;20053;-83
2022/10/24 12:38:42;;;;;;;3.35;0.75;;;20.00;99.90;;;;;;5006672;28;20025;-82
2022/10/24 12:41:33;;;;;;;1.50;0.50;;;19.80;99.90;;;;;;4969721;28;20410;-81
2022/10/24 12:44:27;;;;;;;4.43;1.00;;;19.50;99.90;;;;;;4993490;28;20084;-82
2022/10/24 12:46:55;;;;;;;6.72;1.13;;;19.10;99.90;;;;;;5012673;28;20048;-81
2022/10/24 12:49:31;;;;;;;4.88;1.13;;;18.90;99.90;;;;;;4997440;28;20061;-82
2022/10/24 12:52:17;;;;;;;3.33;0.80;;;18.60;99.90;;;;;;4996361;28;20461;-83
2022/10/24 12:54:44;;;;;;;4.32;0.90;;;18.40;99.90;;;;;;4988851;28;20040;-82
2022/10/24 12:57:13;;;;;;;5.30;1.17;;;18.40;99.90;;;;;;4995015;28;20744;-83
2022/10/24 13:00:00;;;;;;;3.28;0.90;;;18.50;99.90;;;;;;4992971;28;20045;-84
2022/10/24 13:02:52;;;;;;;4.43;1.08;;;18.90;99.90;;;;;;4988622;28;20033;-82
2022/10/24 13:05:58;;;;;;;5.95;1.33;;;19.10;99.90;;;;;;4994002;28;20030;-82
2022/10/24 13:08:52;;;;;;;3.53;0.90;;;18.80;99.90;;;;;;4999186;28;20053;-82
2022/10/24 13:12:00;;;;;;;4.07;0.90;;;19.10;99.90;;;;;;5026619;28;20051;-83
2022/10/24 13:14:33;;;;;;;3.47;0.90;;;19.20;99.90;;;;;;5011528;28;20112;-83
2022/10/24 13:17:42;;;;;;;3.28;1.02;;;19.10;99.90;;;;;;5019476;28;20089;-85
2022/10/24 13:20:18;;;;;;;2.03;0.70;;;19.00;99.90;;;;;;5019136;28;20014;-85